Terminal Aerodrome Forecast
Issued by NWS

Home | Current Version | Previous Version | Text Only | Print | Product List | Glossary On
Versions: 1 2 3 4 5 6 7 8 9 10 11 12 13 14
102
FTUS45 KVEF 222320
TAFVGT
TAF
KVGT 222320Z 2300/2324 13005KT P6SM SKC
     FM230200 33008KT P6SM SKC
     FM231600 36011KT P6SM SKC=

USA.gov is the U.S. government's official web portal to all federal, state and local government web resources and services.